sensor_id;sensor_type;location;lat;lon;timestamp;P1;durP1;ratioP1;P2;durP2;ratioP2
52982;SDS011;48698;45.736;13.926;2022-07-05T00:05:50;14.40;;;2.20;;
52982;SDS011;48698;45.736;13.926;2022-07-05T00:10:54;11.13;;;2.45;;
52982;SDS011;48698;45.736;13.926;2022-07-05T00:15:57;21.88;;;2.72;;
52982;SDS011;48698;45.736;13.926;2022-07-05T00:21:01;9.63;;;2.20;;
52982;SDS011;48698;45.736;13.926;2022-07-05T00:26:05;12.82;;;2.30;;
52982;SDS011;48698;45.736;13.926;2022-07-05T00:31:08;16.67;;;2.60;;
52982;SDS011;48698;45.736;13.926;2022-07-05T00:41:14;12.13;;;2.60;;
52982;SDS011;48698;45.736;13.926;2022-07-05T00:46:18;11.85;;;2.90;;
52982;SDS011;48698;45.736;13.926;2022-07-05T00:51:21;10.32;;;2.22;;
52982;SDS011;48698;45.736;13.926;2022-07-05T00:56:25;12.43;;;2.53;;
52982;SDS011;48698;45.736;13.926;2022-07-05T01:01:29;12.50;;;2.20;;
52982;SDS011;48698;45.736;13.926;2022-07-05T01:06:33;19.55;;;2.53;;
52982;SDS011;48698;45.736;13.926;2022-07-05T01:11:36;10.05;;;2.55;;
52982;SDS011;48698;45.736;13.926;2022-07-05T01:16:39;7.55;;;2.20;;
52982;SDS011;48698;45.736;13.926;2022-07-05T01:21:44;9.00;;;2.80;;
52982;SDS011;48698;45.736;13.926;2022-07-05T01:26:50;13.05;;;2.60;;
52982;SDS011;48698;45.736;13.926;2022-07-05T01:31:54;12.07;;;2.63;;
52982;SDS011;48698;45.736;13.926;2022-07-05T01:36:57;14.02;;;2.63;;
52982;SDS011;48698;45.736;13.926;2022-07-05T01:42:01;11.65;;;2.58;;
52982;SDS011;48698;45.736;13.926;2022-07-05T01:47:05;5.97;;;2.33;;
52982;SDS011;48698;45.736;13.926;2022-07-05T01:52:10;10.20;;;3.05;;
52982;SDS011;48698;45.736;13.926;2022-07-05T01:57:14;10.98;;;3.20;;
52982;SDS011;48698;45.736;13.926;2022-07-05T02:02:18;9.80;;;3.25;;
52982;SDS011;48698;45.736;13.926;2022-07-05T02:07:22;10.57;;;3.67;;
52982;SDS011;48698;45.736;13.926;2022-07-05T02:12:25;13.43;;;3.28;;
52982;SDS011;48698;45.736;13.926;2022-07-05T02:17:29;5.80;;;3.13;;
52982;SDS011;48698;45.736;13.926;2022-07-05T02:22:32;10.77;;;3.95;;
52982;SDS011;48698;45.736;13.926;2022-07-05T02:27:36;6.57;;;2.90;;
52982;SDS011;48698;45.736;13.926;2022-07-05T02:32:40;5.80;;;3.17;;
52982;SDS011;48698;45.736;13.926;2022-07-05T02:37:43;6.88;;;3.10;;
52982;SDS011;48698;45.736;13.926;2022-07-05T02:42:47;4.55;;;2.90;;
52982;SDS011;48698;45.736;13.926;2022-07-05T02:47:50;4.23;;;2.83;;
52982;SDS011;48698;45.736;13.926;2022-07-05T02:52:53;4.70;;;2.83;;
52982;SDS011;48698;45.736;13.926;2022-07-05T02:57:57;6.22;;;3.00;;
52982;SDS011;48698;45.736;13.926;2022-07-05T03:03:00;15.87;;;3.30;;
52982;SDS011;48698;45.736;13.926;2022-07-05T03:08:04;4.33;;;2.93;;
52982;SDS011;48698;45.736;13.926;2022-07-05T03:18:11;6.87;;;3.40;;
52982;SDS011;48698;45.736;13.926;2022-07-05T03:23:15;8.97;;;3.40;;
52982;SDS011;48698;45.736;13.926;2022-07-05T03:28:18;3.70;;;2.83;;
52982;SDS011;48698;45.736;13.926;2022-07-05T03:33:22;5.90;;;3.10;;
52982;SDS011;48698;45.736;13.926;2022-07-05T03:38:30;5.80;;;2.92;;
52982;SDS011;48698;45.736;13.926;2022-07-05T03:43:33;7.90;;;3.00;;
52982;SDS011;48698;45.736;13.926;2022-07-05T03:48:37;6.07;;;3.03;;
52982;SDS011;48698;45.736;13.926;2022-07-05T03:53:42;8.27;;;3.10;;
52982;SDS011;48698;45.736;13.926;2022-07-05T03:58:49;5.03;;;3.17;;
52982;SDS011;48698;45.736;13.926;2022-07-05T04:03:52;7.97;;;2.95;;
52982;SDS011;48698;45.736;13.926;2022-07-05T04:08:56;3.53;;;3.03;;
52982;SDS011;48698;45.736;13.926;2022-07-05T04:14:02;6.45;;;3.15;;
52982;SDS011;48698;45.736;13.926;2022-07-05T04:19:06;6.45;;;3.05;;
52982;SDS011;48698;45.736;13.926;2022-07-05T04:24:09;8.10;;;3.50;;
52982;SDS011;48698;45.736;13.926;2022-07-05T04:29:14;6.72;;;3.28;;
52982;SDS011;48698;45.736;13.926;2022-07-05T04:34:17;9.25;;;2.90;;
52982;SDS011;48698;45.736;13.926;2022-07-05T04:39:20;6.60;;;3.27;;
52982;SDS011;48698;45.736;13.926;2022-07-05T04:44:24;7.78;;;3.17;;
52982;SDS011;48698;45.736;13.926;2022-07-05T04:49:28;9.52;;;3.75;;
52982;SDS011;48698;45.736;13.926;2022-07-05T04:54:31;6.05;;;3.25;;
52982;SDS011;48698;45.736;13.926;2022-07-05T04:59:35;5.07;;;3.20;;
52982;SDS011;48698;45.736;13.926;2022-07-05T05:04:38;7.17;;;2.93;;
52982;SDS011;48698;45.736;13.926;2022-07-05T05:09:41;6.90;;;3.00;;
52982;SDS011;48698;45.736;13.926;2022-07-05T05:14:44;7.20;;;3.08;;
52982;SDS011;48698;45.736;13.926;2022-07-05T05:19:47;8.50;;;3.20;;
52982;SDS011;48698;45.736;13.926;2022-07-05T05:24:51;6.30;;;3.50;;
52982;SDS011;48698;45.736;13.926;2022-07-05T05:29:54;6.57;;;3.00;;
52982;SDS011;48698;45.736;13.926;2022-07-05T05:34:57;13.88;;;3.35;;
52982;SDS011;48698;45.736;13.926;2022-07-05T05:40:00;7.40;;;3.57;;
52982;SDS011;48698;45.736;13.926;2022-07-05T05:45:04;7.65;;;3.55;;
52982;SDS011;48698;45.736;13.926;2022-07-05T05:50:07;5.18;;;3.50;;
52982;SDS011;48698;45.736;13.926;2022-07-05T05:55:11;7.00;;;3.13;;
52982;SDS011;48698;45.736;13.926;2022-07-05T06:00:14;4.67;;;3.50;;
52982;SDS011;48698;45.736;13.926;2022-07-05T06:05:18;5.28;;;3.42;;
52982;SDS011;48698;45.736;13.926;2022-07-05T06:10:22;5.72;;;3.17;;
52982;SDS011;48698;45.736;13.926;2022-07-05T06:15:26;7.13;;;3.22;;
52982;SDS011;48698;45.736;13.926;2022-07-05T06:25:34;6.40;;;3.33;;
52982;SDS011;48698;45.736;13.926;2022-07-05T06:30:37;10.80;;;3.05;;
52982;SDS011;48698;45.736;13.926;2022-07-05T06:35:42;4.28;;;2.60;;
52982;SDS011;48698;45.736;13.926;2022-07-05T06:40:45;4.70;;;2.47;;
52982;SDS011;48698;45.736;13.926;2022-07-05T06:50:52;3.90;;;2.47;;
52982;SDS011;48698;45.736;13.926;2022-07-05T06:55:55;4.68;;;2.53;;
52982;SDS011;48698;45.736;13.926;2022-07-05T07:06:21;7.78;;;3.00;;
52982;SDS011;48698;45.736;13.926;2022-07-05T07:11:28;11.55;;;2.90;;
52982;SDS011;48698;45.736;13.926;2022-07-05T07:16:31;6.05;;;2.60;;
52982;SDS011;48698;45.736;13.926;2022-07-05T07:21:35;7.03;;;2.70;;
52982;SDS011;48698;45.736;13.926;2022-07-05T07:26:39;4.95;;;2.50;;
52982;SDS011;48698;45.736;13.926;2022-07-05T07:32:02;5.87;;;2.70;;
52982;SDS011;48698;45.736;13.926;2022-07-05T07:37:06;6.10;;;2.40;;
52982;SDS011;48698;45.736;13.926;2022-07-05T07:42:11;3.92;;;2.30;;
52982;SDS011;48698;45.736;13.926;2022-07-05T07:47:15;5.25;;;2.60;;
52982;SDS011;48698;45.736;13.926;2022-07-05T07:52:18;5.07;;;2.30;;
52982;SDS011;48698;45.736;13.926;2022-07-05T09:52:53;2.13;;;1.70;;
52982;SDS011;48698;45.736;13.926;2022-07-05T09:58:29;5.22;;;1.90;;
52982;SDS011;48698;45.736;13.926;2022-07-05T10:13:58;7.82;;;1.40;;
52982;SDS011;48698;45.736;13.926;2022-07-05T11:36:44;1.60;;;0.90;;
52982;SDS011;48698;45.736;13.926;2022-07-05T11:42:47;0.98;;;0.70;;
52982;SDS011;48698;45.736;13.926;2022-07-05T11:47:53;1.55;;;0.80;;
52982;SDS011;48698;45.736;13.926;2022-07-05T11:53:00;3.97;;;0.90;;
52982;SDS011;48698;45.736;13.926;2022-07-05T11:58:08;3.17;;;0.85;;
52982;SDS011;48698;45.736;13.926;2022-07-05T12:03:12;2.13;;;0.77;;
52982;SDS011;48698;45.736;13.926;2022-07-05T12:13:08;2.13;;;0.85;;
52982;SDS011;48698;45.736;13.926;2022-07-05T12:18:12;2.88;;;0.98;;
52982;SDS011;48698;45.736;13.926;2022-07-05T12:23:23;1.05;;;0.60;;
52982;SDS011;48698;45.736;13.926;2022-07-05T12:28:33;2.38;;;0.88;;
52982;SDS011;48698;45.736;13.926;2022-07-05T12:33:43;2.85;;;0.85;;
52982;SDS011;48698;45.736;13.926;2022-07-05T12:38:48;1.67;;;1.20;;
52982;SDS011;48698;45.736;13.926;2022-07-05T12:43:53;2.08;;;1.10;;
52982;SDS011;48698;45.736;13.926;2022-07-05T12:48:58;3.88;;;1.00;;
52982;SDS011;48698;45.736;13.926;2022-07-05T13:04:13;0.80;;;0.80;;
52982;SDS011;48698;45.736;13.926;2022-07-05T13:14:37;2.15;;;1.48;;
52982;SDS011;48698;45.736;13.926;2022-07-05T13:24:25;2.00;;;1.55;;
52982;SDS011;48698;45.736;13.926;2022-07-05T13:29:29;2.97;;;1.90;;
52982;SDS011;48698;45.736;13.926;2022-07-05T13:34:33;5.70;;;2.38;;
52982;SDS011;48698;45.736;13.926;2022-07-05T13:39:38;5.13;;;1.58;;
52982;SDS011;48698;45.736;13.926;2022-07-05T13:44:43;3.47;;;1.98;;
52982;SDS011;48698;45.736;13.926;2022-07-05T13:49:47;2.40;;;1.80;;
52982;SDS011;48698;45.736;13.926;2022-07-05T13:54:52;4.38;;;1.80;;
52982;SDS011;48698;45.736;13.926;2022-07-05T13:59:56;4.07;;;1.90;;
52982;SDS011;48698;45.736;13.926;2022-07-05T14:38:40;3.28;;;2.92;;
52982;SDS011;48698;45.736;13.926;2022-07-05T14:43:43;6.32;;;3.10;;
52982;SDS011;48698;45.736;13.926;2022-07-05T14:48:46;5.85;;;3.22;;
52982;SDS011;48698;45.736;13.926;2022-07-05T14:53:50;3.70;;;2.95;;
52982;SDS011;48698;45.736;13.926;2022-07-05T14:58:53;5.97;;;2.85;;
52982;SDS011;48698;45.736;13.926;2022-07-05T15:03:56;5.43;;;2.90;;
52982;SDS011;48698;45.736;13.926;2022-07-05T15:08:59;4.25;;;2.85;;
52982;SDS011;48698;45.736;13.926;2022-07-05T15:19:07;2.10;;;1.90;;
52982;SDS011;48698;45.736;13.926;2022-07-05T15:24:12;4.80;;;2.30;;
52982;SDS011;48698;45.736;13.926;2022-07-05T15:29:18;2.78;;;2.00;;
52982;SDS011;48698;45.736;13.926;2022-07-05T15:34:22;4.55;;;2.97;;
52982;SDS011;48698;45.736;13.926;2022-07-05T15:39:26;15.85;;;7.07;;
52982;SDS011;48698;45.736;13.926;2022-07-05T15:44:31;3.10;;;2.58;;
52982;SDS011;48698;45.736;13.926;2022-07-05T15:49:34;5.80;;;2.72;;
52982;SDS011;48698;45.736;13.926;2022-07-05T15:54:37;4.00;;;2.67;;
52982;SDS011;48698;45.736;13.926;2022-07-05T15:59:43;9.68;;;3.45;;
52982;SDS011;48698;45.736;13.926;2022-07-05T16:04:47;7.72;;;3.70;;
52982;SDS011;48698;45.736;13.926;2022-07-05T16:09:51;8.48;;;4.03;;
52982;SDS011;48698;45.736;13.926;2022-07-05T16:15:20;6.15;;;2.90;;
52982;SDS011;48698;45.736;13.926;2022-07-05T16:20:41;3.88;;;2.63;;
52982;SDS011;48698;45.736;13.926;2022-07-05T16:25:44;6.83;;;2.90;;
52982;SDS011;48698;45.736;13.926;2022-07-05T16:30:47;6.10;;;3.03;;
52982;SDS011;48698;45.736;13.926;2022-07-05T16:35:50;7.00;;;3.15;;
52982;SDS011;48698;45.736;13.926;2022-07-05T16:40:56;3.70;;;2.50;;
52982;SDS011;48698;45.736;13.926;2022-07-05T16:46:01;4.07;;;2.25;;
52982;SDS011;48698;45.736;13.926;2022-07-05T16:51:07;4.75;;;2.78;;
52982;SDS011;48698;45.736;13.926;2022-07-05T16:56:13;5.40;;;2.47;;
52982;SDS011;48698;45.736;13.926;2022-07-05T17:01:17;3.60;;;2.40;;
52982;SDS011;48698;45.736;13.926;2022-07-05T17:06:27;4.47;;;2.30;;
52982;SDS011;48698;45.736;13.926;2022-07-05T17:11:30;5.07;;;2.47;;
52982;SDS011;48698;45.736;13.926;2022-07-05T17:16:37;3.67;;;2.00;;
52982;SDS011;48698;45.736;13.926;2022-07-05T17:21:45;2.45;;;2.15;;
52982;SDS011;48698;45.736;13.926;2022-07-05T17:26:51;3.55;;;1.90;;
52982;SDS011;48698;45.736;13.926;2022-07-05T17:31:57;3.43;;;1.90;;
52982;SDS011;48698;45.736;13.926;2022-07-05T17:37:00;5.00;;;2.78;;
52982;SDS011;48698;45.736;13.926;2022-07-05T17:42:03;2.92;;;2.00;;
52982;SDS011;48698;45.736;13.926;2022-07-05T17:47:06;2.05;;;1.67;;
52982;SDS011;48698;45.736;13.926;2022-07-05T17:52:09;2.92;;;1.90;;
52982;SDS011;48698;45.736;13.926;2022-07-05T17:57:12;4.20;;;1.70;;
52982;SDS011;48698;45.736;13.926;2022-07-05T18:02:17;1.75;;;1.52;;
52982;SDS011;48698;45.736;13.926;2022-07-05T18:07:21;1.90;;;1.70;;
52982;SDS011;48698;45.736;13.926;2022-07-05T18:12:24;6.40;;;2.20;;
52982;SDS011;48698;45.736;13.926;2022-07-05T18:17:35;5.00;;;3.42;;
52982;SDS011;48698;45.736;13.926;2022-07-05T18:22:51;4.05;;;2.40;;
52982;SDS011;48698;45.736;13.926;2022-07-05T18:27:56;3.28;;;2.03;;
52982;SDS011;48698;45.736;13.926;2022-07-05T18:33:10;2.55;;;2.30;;
52982;SDS011;48698;45.736;13.926;2022-07-05T18:38:39;2.55;;;2.10;;
52982;SDS011;48698;45.736;13.926;2022-07-05T18:44:24;2.58;;;2.20;;
52982;SDS011;48698;45.736;13.926;2022-07-05T18:54:30;4.17;;;2.17;;
52982;SDS011;48698;45.736;13.926;2022-07-05T18:59:34;4.50;;;2.20;;
52982;SDS011;48698;45.736;13.926;2022-07-05T19:04:39;2.88;;;1.92;;
52982;SDS011;48698;45.736;13.926;2022-07-05T19:09:50;12.65;;;2.38;;
52982;SDS011;48698;45.736;13.926;2022-07-05T19:15:14;4.28;;;1.80;;
52982;SDS011;48698;45.736;13.926;2022-07-05T19:20:19;3.20;;;2.13;;
52982;SDS011;48698;45.736;13.926;2022-07-05T19:25:24;2.70;;;2.13;;
52982;SDS011;48698;45.736;13.926;2022-07-05T19:30:27;3.90;;;2.47;;
52982;SDS011;48698;45.736;13.926;2022-07-05T19:35:45;4.07;;;2.45;;
52982;SDS011;48698;45.736;13.926;2022-07-05T19:46:03;3.13;;;2.10;;
52982;SDS011;48698;45.736;13.926;2022-07-05T19:51:14;2.70;;;2.05;;
52982;SDS011;48698;45.736;13.926;2022-07-05T19:56:26;5.90;;;2.00;;
52982;SDS011;48698;45.736;13.926;2022-07-05T20:01:33;2.17;;;1.30;;
52982;SDS011;48698;45.736;13.926;2022-07-05T20:06:38;1.15;;;1.13;;
52982;SDS011;48698;45.736;13.926;2022-07-05T20:11:45;1.63;;;1.13;;
52982;SDS011;48698;45.736;13.926;2022-07-05T20:17:04;1.83;;;1.00;;
52982;SDS011;48698;45.736;13.926;2022-07-05T20:22:11;2.00;;;1.20;;
52982;SDS011;48698;45.736;13.926;2022-07-05T20:27:17;4.57;;;1.77;;
52982;SDS011;48698;45.736;13.926;2022-07-05T20:37:28;4.63;;;1.90;;
52982;SDS011;48698;45.736;13.926;2022-07-05T20:42:32;4.70;;;3.17;;
52982;SDS011;48698;45.736;13.926;2022-07-05T20:47:34;3.65;;;2.20;;
52982;SDS011;48698;45.736;13.926;2022-07-05T20:52:37;4.15;;;2.30;;
52982;SDS011;48698;45.736;13.926;2022-07-05T21:02:43;3.38;;;1.98;;
52982;SDS011;48698;45.736;13.926;2022-07-05T21:07:46;3.10;;;2.05;;
52982;SDS011;48698;45.736;13.926;2022-07-05T21:12:53;2.22;;;1.75;;
52982;SDS011;48698;45.736;13.926;2022-07-05T21:17:56;3.58;;;1.80;;
52982;SDS011;48698;45.736;13.926;2022-07-05T21:23:08;2.58;;;1.75;;
52982;SDS011;48698;45.736;13.926;2022-07-05T21:28:11;2.33;;;1.73;;
52982;SDS011;48698;45.736;13.926;2022-07-05T21:33:14;3.33;;;2.08;;
52982;SDS011;48698;45.736;13.926;2022-07-05T21:38:25;2.67;;;1.70;;
52982;SDS011;48698;45.736;13.926;2022-07-05T21:43:30;2.80;;;1.77;;
52982;SDS011;48698;45.736;13.926;2022-07-05T21:48:54;6.25;;;1.98;;
52982;SDS011;48698;45.736;13.926;2022-07-05T21:54:01;3.47;;;2.05;;
52982;SDS011;48698;45.736;13.926;2022-07-05T21:59:06;3.10;;;1.85;;
52982;SDS011;48698;45.736;13.926;2022-07-05T22:04:34;5.15;;;1.95;;
52982;SDS011;48698;45.736;13.926;2022-07-05T22:09:45;3.22;;;2.15;;
52982;SDS011;48698;45.736;13.926;2022-07-05T22:14:48;3.13;;;1.98;;
52982;SDS011;48698;45.736;13.926;2022-07-05T22:19:54;2.03;;;1.50;;
52982;SDS011;48698;45.736;13.926;2022-07-05T22:25:04;5.20;;;1.80;;
52982;SDS011;48698;45.736;13.926;2022-07-05T22:30:08;4.90;;;2.33;;
52982;SDS011;48698;45.736;13.926;2022-07-05T22:35:11;2.88;;;1.98;;
52982;SDS011;48698;45.736;13.926;2022-07-05T22:40:15;2.72;;;2.08;;
52982;SDS011;48698;45.736;13.926;2022-07-05T22:45:19;3.58;;;2.17;;
52982;SDS011;48698;45.736;13.926;2022-07-05T22:50:21;3.75;;;1.95;;
52982;SDS011;48698;45.736;13.926;2022-07-05T22:55:24;2.60;;;1.75;;
52982;SDS011;48698;45.736;13.926;2022-07-05T23:00:27;3.50;;;1.80;;
52982;SDS011;48698;45.736;13.926;2022-07-05T23:05:30;3.92;;;1.90;;
52982;SDS011;48698;45.736;13.926;2022-07-05T23:10:32;2.60;;;1.80;;
52982;SDS011;48698;45.736;13.926;2022-07-05T23:15:35;2.20;;;1.75;;
52982;SDS011;48698;45.736;13.926;2022-07-05T23:20:39;2.22;;;1.80;;
52982;SDS011;48698;45.736;13.926;2022-07-05T23:25:42;4.13;;;1.70;;
52982;SDS011;48698;45.736;13.926;2022-07-05T23:30:48;3.88;;;1.98;;
52982;SDS011;48698;45.736;13.926;2022-07-05T23:35:51;2.87;;;1.80;;
52982;SDS011;48698;45.736;13.926;2022-07-05T23:40:54;2.65;;;1.83;;
52982;SDS011;48698;45.736;13.926;2022-07-05T23:45:58;3.90;;;1.80;;
52982;SDS011;48698;45.736;13.926;2022-07-05T23:51:01;3.58;;;1.88;;
52982;SDS011;48698;45.736;13.926;2022-07-05T23:56:04;2.33;;;1.60;;
